Pagrindinis puslapis
METAR-TAF:

METAR-TAF

Oro uostai :

Šanchajaus Pudongo tarptautinis oro uostas

Šanchajus-Pudong, Kinija

platuma: 31-07N, ilguma: 121-46E, Aukštis: 4 m

Dabartinis oras

Ataskaita buvo paskelbta 19 minutes, ne 22:30 UTC
Vėjas 8 kt iš Pietų
Temperatūra 8°C
Drėgmė 87%
Slėgis 1022 hPa
Matomumas 10 km arba daugiau
nėra debesų žemiau 1500 m ir nėra kamuolinių lietaus debesų

METAR: ZSPD 232230Z 17004MPS CAVOK 08/06 Q1022 NOSIG

Laikas: 06:49 (22:49 UTC)

Prognozė

Ataskaita buvo paskelbta 7 valandos ir 42 minutes, ne 15:07 UTC
Prognozė galioja nuo 23 metu 18 UTC su 24 metu 18 UTC
Vėjas 10 kt iš Pietų/Pietryčių
Matomumas: 5000 m
Su prošvaistėmis ne aukštis 2000 ft
rūkana

TAF: ZSPD 231507Z 2318/2418 16005MPS 5000 BR BKN020 TX21/2406Z TN07/2321Z

Orai ataskaitas ir orų prognozės (METAR, TAF).

turimą stotys yra geltonos ir raudonos taškus žemėlapyje.

Perkelti pele per norėdami pamatyti stoties vardą.

Tada spustelėkite, norėdami matyti oro stebėjimo ir prognozės.

Norėdami pakeisti žemėlapį: spustelėkite ant žalios mygtukų su juodo kryžiaus žemyn,; žalią mygtuką su brūkšneliu, jei norite nutolinti; arba žalių rodyklių gretimoms žemėlapius.


METAR-TAF: